sensor_id;sensor_type;location;lat;lon;timestamp;temperature;humidity
57566;DHT22;63999;43.882;-0.310;2023-07-30T00:00:23;24.20;72.40
57566;DHT22;63999;43.882;-0.310;2023-07-30T00:02:51;24.20;72.50
57566;DHT22;63999;43.882;-0.310;2023-07-30T00:05:20;24.20;72.40
57566;DHT22;63999;43.882;-0.310;2023-07-30T00:07:46;24.20;72.50
57566;DHT22;63999;43.882;-0.310;2023-07-30T00:10:14;24.20;72.50
57566;DHT22;63999;43.882;-0.310;2023-07-30T00:12:43;24.20;72.50
57566;DHT22;63999;43.882;-0.310;2023-07-30T00:15:12;24.20;72.30
57566;DHT22;63999;43.882;-0.310;2023-07-30T00:17:44;24.20;72.50
57566;DHT22;63999;43.882;-0.310;2023-07-30T00:20:10;24.20;72.70
57566;DHT22;63999;43.882;-0.310;2023-07-30T00:22:41;24.20;72.60
57566;DHT22;63999;43.882;-0.310;2023-07-30T00:25:13;24.20;72.70
57566;DHT22;63999;43.882;-0.310;2023-07-30T00:27:39;24.20;72.60
57566;DHT22;63999;43.882;-0.310;2023-07-30T00:30:05;24.20;72.70
57566;DHT22;63999;43.882;-0.310;2023-07-30T00:32:34;24.10;72.60
57566;DHT22;63999;43.882;-0.310;2023-07-30T00:35:06;24.10;72.70
57566;DHT22;63999;43.882;-0.310;2023-07-30T00:37:35;24.00;72.80
57566;DHT22;63999;43.882;-0.310;2023-07-30T00:40:02;24.10;72.80
57566;DHT22;63999;43.882;-0.310;2023-07-30T00:42:31;24.10;72.80
57566;DHT22;63999;43.882;-0.310;2023-07-30T00:45:02;24.10;72.80
57566;DHT22;63999;43.882;-0.310;2023-07-30T00:47:36;24.10;72.90
57566;DHT22;63999;43.882;-0.310;2023-07-30T00:50:03;24.10;72.90
57566;DHT22;63999;43.882;-0.310;2023-07-30T00:52:30;24.00;72.80
57566;DHT22;63999;43.882;-0.310;2023-07-30T00:54:59;24.00;72.90
57566;DHT22;63999;43.882;-0.310;2023-07-30T00:57:27;24.00;73.00
57566;DHT22;63999;43.882;-0.310;2023-07-30T00:59:56;24.00;72.90
57566;DHT22;63999;43.882;-0.310;2023-07-30T01:02:28;24.00;73.00
57566;DHT22;63999;43.882;-0.310;2023-07-30T01:04:57;24.00;73.00
57566;DHT22;63999;43.882;-0.310;2023-07-30T01:07:25;24.00;73.10
57566;DHT22;63999;43.882;-0.310;2023-07-30T01:09:51;24.00;73.10
57566;DHT22;63999;43.882;-0.310;2023-07-30T01:12:21;24.00;73.10
57566;DHT22;63999;43.882;-0.310;2023-07-30T01:14:47;24.00;73.00
57566;DHT22;63999;43.882;-0.310;2023-07-30T01:17:14;24.00;73.20
57566;DHT22;63999;43.882;-0.310;2023-07-30T01:19:44;24.00;73.20
57566;DHT22;63999;43.882;-0.310;2023-07-30T01:22:10;24.00;73.20
57566;DHT22;63999;43.882;-0.310;2023-07-30T01:24:38;24.00;73.20
57566;DHT22;63999;43.882;-0.310;2023-07-30T01:27:07;24.00;73.20
57566;DHT22;63999;43.882;-0.310;2023-07-30T01:29:42;24.00;73.30
57566;DHT22;63999;43.882;-0.310;2023-07-30T01:32:15;24.00;73.30
57566;DHT22;63999;43.882;-0.310;2023-07-30T01:34:44;24.00;73.20
57566;DHT22;63999;43.882;-0.310;2023-07-30T01:37:18;24.00;73.30
57566;DHT22;63999;43.882;-0.310;2023-07-30T01:39:45;24.00;73.30
57566;DHT22;63999;43.882;-0.310;2023-07-30T01:42:16;24.00;73.30
57566;DHT22;63999;43.882;-0.310;2023-07-30T01:44:44;23.90;73.40
57566;DHT22;63999;43.882;-0.310;2023-07-30T01:47:13;23.90;73.40
57566;DHT22;63999;43.882;-0.310;2023-07-30T01:49:39;23.90;73.50
57566;DHT22;63999;43.882;-0.310;2023-07-30T01:52:08;23.90;73.40
57566;DHT22;63999;43.882;-0.310;2023-07-30T01:54:33;23.90;73.50
57566;DHT22;63999;43.882;-0.310;2023-07-30T01:57:00;23.90;73.40
57566;DHT22;63999;43.882;-0.310;2023-07-30T01:59:26;23.90;73.60
57566;DHT22;63999;43.882;-0.310;2023-07-30T02:01:57;23.90;73.60
57566;DHT22;63999;43.882;-0.310;2023-07-30T02:04:26;23.90;73.50
57566;DHT22;63999;43.882;-0.310;2023-07-30T02:06:52;23.90;73.60
57566;DHT22;63999;43.882;-0.310;2023-07-30T02:09:20;23.90;73.60
57566;DHT22;63999;43.882;-0.310;2023-07-30T02:11:52;23.90;73.60
57566;DHT22;63999;43.882;-0.310;2023-07-30T02:14:23;23.90;73.80
57566;DHT22;63999;43.882;-0.310;2023-07-30T02:16:51;23.90;73.70
57566;DHT22;63999;43.882;-0.310;2023-07-30T02:19:20;23.90;73.70
57566;DHT22;63999;43.882;-0.310;2023-07-30T02:21:51;23.90;73.80
57566;DHT22;63999;43.882;-0.310;2023-07-30T02:24:17;23.90;73.80
57566;DHT22;63999;43.882;-0.310;2023-07-30T02:26:43;23.80;73.70
57566;DHT22;63999;43.882;-0.310;2023-07-30T02:29:14;23.80;73.80
57566;DHT22;63999;43.882;-0.310;2023-07-30T02:31:46;23.80;73.90
57566;DHT22;63999;43.882;-0.310;2023-07-30T02:34:11;23.80;73.90
57566;DHT22;63999;43.882;-0.310;2023-07-30T02:36:40;23.80;73.90
57566;DHT22;63999;43.882;-0.310;2023-07-30T02:39:10;23.80;73.90
57566;DHT22;63999;43.882;-0.310;2023-07-30T02:41:38;23.80;73.90
57566;DHT22;63999;43.882;-0.310;2023-07-30T02:44:06;23.80;74.00
57566;DHT22;63999;43.882;-0.310;2023-07-30T02:46:32;23.80;74.00
57566;DHT22;63999;43.882;-0.310;2023-07-30T02:48:58;23.80;74.00
57566;DHT22;63999;43.882;-0.310;2023-07-30T02:51:27;23.80;74.00
57566;DHT22;63999;43.882;-0.310;2023-07-30T02:53:57;23.70;74.00
57566;DHT22;63999;43.882;-0.310;2023-07-30T02:56:27;23.70;74.00
57566;DHT22;63999;43.882;-0.310;2023-07-30T02:58:53;23.70;74.10
57566;DHT22;63999;43.882;-0.310;2023-07-30T03:01:22;23.70;74.20
57566;DHT22;63999;43.882;-0.310;2023-07-30T03:03:50;23.70;74.30
57566;DHT22;63999;43.882;-0.310;2023-07-30T03:06:19;23.60;74.30
57566;DHT22;63999;43.882;-0.310;2023-07-30T03:08:47;23.60;74.20
57566;DHT22;63999;43.882;-0.310;2023-07-30T03:11:13;23.60;74.10
57566;DHT22;63999;43.882;-0.310;2023-07-30T03:13:41;23.60;74.30
57566;DHT22;63999;43.882;-0.310;2023-07-30T03:16:07;23.60;74.10
57566;DHT22;63999;43.882;-0.310;2023-07-30T03:18:33;23.60;74.40
57566;DHT22;63999;43.882;-0.310;2023-07-30T03:21:03;23.60;74.20
57566;DHT22;63999;43.882;-0.310;2023-07-30T03:23:34;23.60;74.60
57566;DHT22;63999;43.882;-0.310;2023-07-30T03:26:03;23.60;74.30
57566;DHT22;63999;43.882;-0.310;2023-07-30T03:28:29;23.60;74.40
57566;DHT22;63999;43.882;-0.310;2023-07-30T03:30:58;23.60;74.40
57566;DHT22;63999;43.882;-0.310;2023-07-30T03:33:24;23.60;74.30
57566;DHT22;63999;43.882;-0.310;2023-07-30T03:35:50;23.60;74.30
57566;DHT22;63999;43.882;-0.310;2023-07-30T03:38:16;23.60;74.60
57566;DHT22;63999;43.882;-0.310;2023-07-30T03:40:41;23.60;75.50
57566;DHT22;63999;43.882;-0.310;2023-07-30T03:43:07;23.60;74.70
57566;DHT22;63999;43.882;-0.310;2023-07-30T03:45:33;23.50;74.20
57566;DHT22;63999;43.882;-0.310;2023-07-30T03:47:59;23.50;75.10
57566;DHT22;63999;43.882;-0.310;2023-07-30T03:50:27;23.50;74.50
57566;DHT22;63999;43.882;-0.310;2023-07-30T03:52:56;23.50;74.40
57566;DHT22;63999;43.882;-0.310;2023-07-30T03:55:23;23.50;74.30
57566;DHT22;63999;43.882;-0.310;2023-07-30T03:57:59;23.40;74.30
57566;DHT22;63999;43.882;-0.310;2023-07-30T04:00:34;23.40;74.50
57566;DHT22;63999;43.882;-0.310;2023-07-30T04:03:02;23.40;74.10
57566;DHT22;63999;43.882;-0.310;2023-07-30T04:05:29;23.30;74.30
57566;DHT22;63999;43.882;-0.310;2023-07-30T04:07:55;23.30;74.10
57566;DHT22;63999;43.882;-0.310;2023-07-30T04:10:21;23.30;74.20
57566;DHT22;63999;43.882;-0.310;2023-07-30T04:12:55;23.20;74.00
57566;DHT22;63999;43.882;-0.310;2023-07-30T04:15:20;23.20;74.00
57566;DHT22;63999;43.882;-0.310;2023-07-30T04:17:46;23.20;74.00
57566;DHT22;63999;43.882;-0.310;2023-07-30T04:20:12;23.20;74.10
57566;DHT22;63999;43.882;-0.310;2023-07-30T04:22:38;23.20;74.20
57566;DHT22;63999;43.882;-0.310;2023-07-30T04:25:07;23.20;73.80
57566;DHT22;63999;43.882;-0.310;2023-07-30T04:27:36;23.20;74.20
57566;DHT22;63999;43.882;-0.310;2023-07-30T04:30:08;23.20;73.80
57566;DHT22;63999;43.882;-0.310;2023-07-30T04:32:37;23.20;73.80
57566;DHT22;63999;43.882;-0.310;2023-07-30T04:35:03;23.10;73.50
57566;DHT22;63999;43.882;-0.310;2023-07-30T04:37:29;23.10;73.50
57566;DHT22;63999;43.882;-0.310;2023-07-30T04:39:58;23.00;73.60
57566;DHT22;63999;43.882;-0.310;2023-07-30T04:42:24;23.00;74.50
57566;DHT22;63999;43.882;-0.310;2023-07-30T04:44:53;23.20;74.70
57566;DHT22;63999;43.882;-0.310;2023-07-30T04:47:18;23.10;74.20
57566;DHT22;63999;43.882;-0.310;2023-07-30T04:49:44;23.10;73.30
57566;DHT22;63999;43.882;-0.310;2023-07-30T04:52:10;23.00;73.30
57566;DHT22;63999;43.882;-0.310;2023-07-30T04:54:39;23.00;73.60
57566;DHT22;63999;43.882;-0.310;2023-07-30T04:57:09;23.00;73.30
57566;DHT22;63999;43.882;-0.310;2023-07-30T04:59:38;22.90;73.20
57566;DHT22;63999;43.882;-0.310;2023-07-30T05:02:06;22.90;73.20
57566;DHT22;63999;43.882;-0.310;2023-07-30T05:04:35;22.90;73.20
57566;DHT22;63999;43.882;-0.310;2023-07-30T05:07:04;22.90;73.30
57566;DHT22;63999;43.882;-0.310;2023-07-30T05:09:30;22.90;73.30
57566;DHT22;63999;43.882;-0.310;2023-07-30T05:11:56;22.90;73.10
57566;DHT22;63999;43.882;-0.310;2023-07-30T05:14:21;22.90;73.50
57566;DHT22;63999;43.882;-0.310;2023-07-30T05:16:50;22.90;73.20
57566;DHT22;63999;43.882;-0.310;2023-07-30T05:19:16;22.90;73.20
57566;DHT22;63999;43.882;-0.310;2023-07-30T05:21:42;22.90;73.20
57566;DHT22;63999;43.882;-0.310;2023-07-30T05:24:08;22.80;73.20
57566;DHT22;63999;43.882;-0.310;2023-07-30T05:26:39;22.80;73.20
57566;DHT22;63999;43.882;-0.310;2023-07-30T05:29:11;22.80;73.10
57566;DHT22;63999;43.882;-0.310;2023-07-30T05:31:37;22.80;73.10
57566;DHT22;63999;43.882;-0.310;2023-07-30T05:34:10;22.80;73.20
57566;DHT22;63999;43.882;-0.310;2023-07-30T05:36:39;22.80;73.20
57566;DHT22;63999;43.882;-0.310;2023-07-30T05:39:04;22.80;73.20
57566;DHT22;63999;43.882;-0.310;2023-07-30T05:41:33;22.80;73.60
57566;DHT22;63999;43.882;-0.310;2023-07-30T05:44:02;22.80;73.20
57566;DHT22;63999;43.882;-0.310;2023-07-30T05:46:31;22.80;73.70
57566;DHT22;63999;43.882;-0.310;2023-07-30T05:48:57;22.90;73.50
57566;DHT22;63999;43.882;-0.310;2023-07-30T05:51:28;22.90;73.10
57566;DHT22;63999;43.882;-0.310;2023-07-30T05:53:56;22.80;73.10
57566;DHT22;63999;43.882;-0.310;2023-07-30T05:56:28;22.80;73.10
57566;DHT22;63999;43.882;-0.310;2023-07-30T05:58:56;22.70;73.20
57566;DHT22;63999;43.882;-0.310;2023-07-30T06:01:22;22.70;73.20
57566;DHT22;63999;43.882;-0.310;2023-07-30T06:03:48;22.70;73.20
57566;DHT22;63999;43.882;-0.310;2023-07-30T06:06:14;22.70;73.20
57566;DHT22;63999;43.882;-0.310;2023-07-30T06:08:43;22.70;73.20
57566;DHT22;63999;43.882;-0.310;2023-07-30T06:11:19;22.70;73.10
57566;DHT22;63999;43.882;-0.310;2023-07-30T06:13:45;22.60;73.10
57566;DHT22;63999;43.882;-0.310;2023-07-30T06:16:17;22.60;73.20
57566;DHT22;63999;43.882;-0.310;2023-07-30T06:18:43;22.60;73.40
57566;DHT22;63999;43.882;-0.310;2023-07-30T06:21:12;22.60;73.10
57566;DHT22;63999;43.882;-0.310;2023-07-30T06:23:43;22.50;73.20
57566;DHT22;63999;43.882;-0.310;2023-07-30T06:26:12;22.50;73.30
57566;DHT22;63999;43.882;-0.310;2023-07-30T06:28:40;22.50;73.40
57566;DHT22;63999;43.882;-0.310;2023-07-30T06:31:09;22.60;73.20
57566;DHT22;63999;43.882;-0.310;2023-07-30T06:33:35;22.60;73.20
57566;DHT22;63999;43.882;-0.310;2023-07-30T06:36:04;22.60;73.20
57566;DHT22;63999;43.882;-0.310;2023-07-30T06:38:38;22.50;73.00
57566;DHT22;63999;43.882;-0.310;2023-07-30T06:41:07;22.50;73.20
57566;DHT22;63999;43.882;-0.310;2023-07-30T06:43:35;22.50;73.60
57566;DHT22;63999;43.882;-0.310;2023-07-30T06:46:04;22.50;73.10
57566;DHT22;63999;43.882;-0.310;2023-07-30T06:48:29;22.50;73.30
57566;DHT22;63999;43.882;-0.310;2023-07-30T06:50:56;22.50;73.10
57566;DHT22;63999;43.882;-0.310;2023-07-30T06:53:22;22.50;73.10
57566;DHT22;63999;43.882;-0.310;2023-07-30T06:55:48;22.50;73.10
57566;DHT22;63999;43.882;-0.310;2023-07-30T06:58:13;22.50;73.50
57566;DHT22;63999;43.882;-0.310;2023-07-30T07:00:41;22.70;73.60
57566;DHT22;63999;43.882;-0.310;2023-07-30T07:03:11;22.70;73.40
57566;DHT22;63999;43.882;-0.310;2023-07-30T07:05:36;22.60;73.00
57566;DHT22;63999;43.882;-0.310;2023-07-30T07:08:05;22.60;73.00
57566;DHT22;63999;43.882;-0.310;2023-07-30T07:10:34;22.60;73.10
57566;DHT22;63999;43.882;-0.310;2023-07-30T07:13:00;22.50;73.10
57566;DHT22;63999;43.882;-0.310;2023-07-30T07:15:26;22.60;73.50
57566;DHT22;63999;43.882;-0.310;2023-07-30T07:17:52;22.50;73.10
57566;DHT22;63999;43.882;-0.310;2023-07-30T07:20:17;22.60;74.30
57566;DHT22;63999;43.882;-0.310;2023-07-30T07:22:43;22.60;73.60
57566;DHT22;63999;43.882;-0.310;2023-07-30T07:25:15;22.70;74.30
57566;DHT22;63999;43.882;-0.310;2023-07-30T07:27:48;22.80;75.60
57566;DHT22;63999;43.882;-0.310;2023-07-30T07:30:14;23.00;75.70
57566;DHT22;63999;43.882;-0.310;2023-07-30T07:32:40;22.90;75.30
57566;DHT22;63999;43.882;-0.310;2023-07-30T07:35:09;23.00;75.10
57566;DHT22;63999;43.882;-0.310;2023-07-30T07:37:34;23.00;74.80
57566;DHT22;63999;43.882;-0.310;2023-07-30T07:40:04;22.90;74.30
57566;DHT22;63999;43.882;-0.310;2023-07-30T07:42:30;22.90;74.40
57566;DHT22;63999;43.882;-0.310;2023-07-30T07:44:56;22.90;74.80
57566;DHT22;63999;43.882;-0.310;2023-07-30T07:47:22;22.90;74.70
57566;DHT22;63999;43.882;-0.310;2023-07-30T07:49:50;22.90;75.00
57566;DHT22;63999;43.882;-0.310;2023-07-30T07:52:18;22.90;74.40
57566;DHT22;63999;43.882;-0.310;2023-07-30T07:54:46;22.80;73.80
57566;DHT22;63999;43.882;-0.310;2023-07-30T07:57:13;22.80;73.90
57566;DHT22;63999;43.882;-0.310;2023-07-30T07:59:41;22.80;74.60
57566;DHT22;63999;43.882;-0.310;2023-07-30T08:02:16;22.90;75.40
57566;DHT22;63999;43.882;-0.310;2023-07-30T08:04:45;22.90;74.80
57566;DHT22;63999;43.882;-0.310;2023-07-30T08:07:14;22.90;74.20
57566;DHT22;63999;43.882;-0.310;2023-07-30T08:09:42;22.90;74.40
57566;DHT22;63999;43.882;-0.310;2023-07-30T08:12:11;22.90;74.30
57566;DHT22;63999;43.882;-0.310;2023-07-30T08:14:38;22.90;74.40
57566;DHT22;63999;43.882;-0.310;2023-07-30T08:17:06;22.90;75.00
57566;DHT22;63999;43.882;-0.310;2023-07-30T08:19:32;23.00;75.10
57566;DHT22;63999;43.882;-0.310;2023-07-30T08:22:00;23.00;74.60
57566;DHT22;63999;43.882;-0.310;2023-07-30T08:24:26;23.00;75.40
57566;DHT22;63999;43.882;-0.310;2023-07-30T08:26:54;23.00;75.20
57566;DHT22;63999;43.882;-0.310;2023-07-30T08:29:20;23.00;74.90
57566;DHT22;63999;43.882;-0.310;2023-07-30T08:31:52;23.00;74.50
57566;DHT22;63999;43.882;-0.310;2023-07-30T08:34:21;22.90;74.40
57566;DHT22;63999;43.882;-0.310;2023-07-30T08:36:48;22.90;74.70
57566;DHT22;63999;43.882;-0.310;2023-07-30T08:39:14;23.00;74.90
57566;DHT22;63999;43.882;-0.310;2023-07-30T08:41:40;23.00;75.10
57566;DHT22;63999;43.882;-0.310;2023-07-30T08:44:06;23.00;74.90
57566;DHT22;63999;43.882;-0.310;2023-07-30T08:46:34;23.00;74.80
57566;DHT22;63999;43.882;-0.310;2023-07-30T08:49:03;23.00;75.00
57566;DHT22;63999;43.882;-0.310;2023-07-30T08:51:32;23.10;75.00
57566;DHT22;63999;43.882;-0.310;2023-07-30T08:54:00;23.10;74.50
57566;DHT22;63999;43.882;-0.310;2023-07-30T08:56:30;23.20;75.20
57566;DHT22;63999;43.882;-0.310;2023-07-30T08:58:58;23.20;75.00
57566;DHT22;63999;43.882;-0.310;2023-07-30T09:01:30;23.20;75.50
57566;DHT22;63999;43.882;-0.310;2023-07-30T09:03:59;23.20;75.10
57566;DHT22;63999;43.882;-0.310;2023-07-30T09:06:28;23.20;75.20
57566;DHT22;63999;43.882;-0.310;2023-07-30T09:08:56;23.20;74.20
57566;DHT22;63999;43.882;-0.310;2023-07-30T09:11:27;23.20;74.80
57566;DHT22;63999;43.882;-0.310;2023-07-30T09:13:56;23.20;75.00
57566;DHT22;63999;43.882;-0.310;2023-07-30T09:16:25;23.20;74.80
57566;DHT22;63999;43.882;-0.310;2023-07-30T09:18:54;23.20;74.90
57566;DHT22;63999;43.882;-0.310;2023-07-30T09:21:33;23.30;74.60
57566;DHT22;63999;43.882;-0.310;2023-07-30T09:24:02;23.30;74.50
57566;DHT22;63999;43.882;-0.310;2023-07-30T09:26:43;23.30;74.80
57566;DHT22;63999;43.882;-0.310;2023-07-30T09:29:14;23.30;74.60
57566;DHT22;63999;43.882;-0.310;2023-07-30T09:31:50;23.30;74.40
57566;DHT22;63999;43.882;-0.310;2023-07-30T09:34:24;23.40;74.80
57566;DHT22;63999;43.882;-0.310;2023-07-30T09:36:51;23.30;75.00
57566;DHT22;63999;43.882;-0.310;2023-07-30T09:39:26;23.30;74.40
57566;DHT22;63999;43.882;-0.310;2023-07-30T09:42:01;23.40;74.40
57566;DHT22;63999;43.882;-0.310;2023-07-30T09:44:27;23.40;74.90
57566;DHT22;63999;43.882;-0.310;2023-07-30T09:46:53;23.40;75.00
57566;DHT22;63999;43.882;-0.310;2023-07-30T09:49:19;23.40;74.50
57566;DHT22;63999;43.882;-0.310;2023-07-30T09:51:45;23.40;74.90
57566;DHT22;63999;43.882;-0.310;2023-07-30T09:54:14;23.40;75.00
57566;DHT22;63999;43.882;-0.310;2023-07-30T09:56:43;23.40;75.00
57566;DHT22;63999;43.882;-0.310;2023-07-30T09:59:09;23.40;75.10
57566;DHT22;63999;43.882;-0.310;2023-07-30T10:01:43;23.50;74.10
57566;DHT22;63999;43.882;-0.310;2023-07-30T10:04:15;23.50;74.70
57566;DHT22;63999;43.882;-0.310;2023-07-30T10:07:04;23.50;74.10
57566;DHT22;63999;43.882;-0.310;2023-07-30T10:09:39;23.50;74.20
57566;DHT22;63999;43.882;-0.310;2023-07-30T10:12:16;23.50;74.50
57566;DHT22;63999;43.882;-0.310;2023-07-30T10:14:43;23.50;74.80
57566;DHT22;63999;43.882;-0.310;2023-07-30T10:17:13;23.50;75.50
57566;DHT22;63999;43.882;-0.310;2023-07-30T10:19:41;23.50;74.50
57566;DHT22;63999;43.882;-0.310;2023-07-30T10:24:40;23.50;74.80
57566;DHT22;63999;43.882;-0.310;2023-07-30T10:27:11;23.60;74.90
57566;DHT22;63999;43.882;-0.310;2023-07-30T10:30:12;23.60;74.30
57566;DHT22;63999;43.882;-0.310;2023-07-30T10:41:03;23.60;74.30
57566;DHT22;63999;43.882;-0.310;2023-07-30T10:43:30;23.60;74.80
57566;DHT22;63999;43.882;-0.310;2023-07-30T10:45:56;23.60;74.30
57566;DHT22;63999;43.882;-0.310;2023-07-30T10:48:39;23.60;74.70
57566;DHT22;63999;43.882;-0.310;2023-07-30T10:51:10;23.60;74.70
57566;DHT22;63999;43.882;-0.310;2023-07-30T10:53:41;23.60;74.80
57566;DHT22;63999;43.882;-0.310;2023-07-30T10:56:09;23.60;74.80
57566;DHT22;63999;43.882;-0.310;2023-07-30T10:58:38;23.70;74.60
57566;DHT22;63999;43.882;-0.310;2023-07-30T11:01:05;23.70;74.30
57566;DHT22;63999;43.882;-0.310;2023-07-30T11:03:31;23.60;74.80
57566;DHT22;63999;43.882;-0.310;2023-07-30T11:05:58;23.60;75.10
57566;DHT22;63999;43.882;-0.310;2023-07-30T11:08:38;23.60;75.20
57566;DHT22;63999;43.882;-0.310;2023-07-30T11:11:06;23.60;74.30
57566;DHT22;63999;43.882;-0.310;2023-07-30T11:13:36;23.70;74.80
57566;DHT22;63999;43.882;-0.310;2023-07-30T11:16:07;23.80;75.10
57566;DHT22;63999;43.882;-0.310;2023-07-30T11:18:34;23.80;75.00
57566;DHT22;63999;43.882;-0.310;2023-07-30T11:21:10;23.70;74.90
57566;DHT22;63999;43.882;-0.310;2023-07-30T11:23:38;23.70;74.70
57566;DHT22;63999;43.882;-0.310;2023-07-30T11:26:07;23.80;74.40
57566;DHT22;63999;43.882;-0.310;2023-07-30T11:28:38;23.80;74.60
57566;DHT22;63999;43.882;-0.310;2023-07-30T11:31:09;23.80;74.20
57566;DHT22;63999;43.882;-0.310;2023-07-30T11:33:40;23.80;75.00
57566;DHT22;63999;43.882;-0.310;2023-07-30T11:36:12;23.80;75.00
57566;DHT22;63999;43.882;-0.310;2023-07-30T11:38:40;23.70;75.00
57566;DHT22;63999;43.882;-0.310;2023-07-30T11:41:09;23.70;74.70
57566;DHT22;63999;43.882;-0.310;2023-07-30T11:43:38;23.80;74.80
57566;DHT22;63999;43.882;-0.310;2023-07-30T11:46:17;23.80;75.00
57566;DHT22;63999;43.882;-0.310;2023-07-30T11:48:46;23.80;74.70
57566;DHT22;63999;43.882;-0.310;2023-07-30T11:51:28;23.80;74.70
57566;DHT22;63999;43.882;-0.310;2023-07-30T11:53:58;23.80;74.60
57566;DHT22;63999;43.882;-0.310;2023-07-30T11:56:33;23.80;74.60
57566;DHT22;63999;43.882;-0.310;2023-07-30T11:59:05;23.80;74.90
57566;DHT22;63999;43.882;-0.310;2023-07-30T12:01:35;23.80;75.00
57566;DHT22;63999;43.882;-0.310;2023-07-30T12:04:04;23.80;74.70
57566;DHT22;63999;43.882;-0.310;2023-07-30T12:09:19;23.90;74.90
57566;DHT22;63999;43.882;-0.310;2023-07-30T12:11:57;23.80;74.80
57566;DHT22;63999;43.882;-0.310;2023-07-30T12:14:28;23.90;74.90
57566;DHT22;63999;43.882;-0.310;2023-07-30T12:16:59;23.90;75.00
57566;DHT22;63999;43.882;-0.310;2023-07-30T12:19:26;23.90;74.70
57566;DHT22;63999;43.882;-0.310;2023-07-30T12:21:51;23.90;75.00
57566;DHT22;63999;43.882;-0.310;2023-07-30T12:24:18;23.90;75.20
57566;DHT22;63999;43.882;-0.310;2023-07-30T12:26:44;24.00;75.10
57566;DHT22;63999;43.882;-0.310;2023-07-30T12:29:09;23.90;74.90
57566;DHT22;63999;43.882;-0.310;2023-07-30T12:31:35;24.00;74.80
57566;DHT22;63999;43.882;-0.310;2023-07-30T12:34:04;24.00;74.70
57566;DHT22;63999;43.882;-0.310;2023-07-30T12:36:35;24.00;75.00
57566;DHT22;63999;43.882;-0.310;2023-07-30T12:39:03;23.90;74.90
57566;DHT22;63999;43.882;-0.310;2023-07-30T12:41:29;24.00;74.80
57566;DHT22;63999;43.882;-0.310;2023-07-30T12:43:56;24.00;75.20
57566;DHT22;63999;43.882;-0.310;2023-07-30T12:46:25;23.90;75.20
57566;DHT22;63999;43.882;-0.310;2023-07-30T12:48:58;23.90;75.20
57566;DHT22;63999;43.882;-0.310;2023-07-30T12:51:28;24.00;75.20
57566;DHT22;63999;43.882;-0.310;2023-07-30T12:53:54;24.00;75.00
57566;DHT22;63999;43.882;-0.310;2023-07-30T12:56:25;24.00;75.30
57566;DHT22;63999;43.882;-0.310;2023-07-30T12:58:51;24.00;75.10
57566;DHT22;63999;43.882;-0.310;2023-07-30T13:01:17;24.00;75.20
57566;DHT22;63999;43.882;-0.310;2023-07-30T13:03:43;24.00;75.20
57566;DHT22;63999;43.882;-0.310;2023-07-30T13:06:11;24.00;75.20
57566;DHT22;63999;43.882;-0.310;2023-07-30T13:08:39;24.00;75.30
57566;DHT22;63999;43.882;-0.310;2023-07-30T13:11:06;24.00;75.30
57566;DHT22;63999;43.882;-0.310;2023-07-30T13:13:31;24.00;75.10
57566;DHT22;63999;43.882;-0.310;2023-07-30T13:15:58;24.00;75.10
57566;DHT22;63999;43.882;-0.310;2023-07-30T13:18:27;24.00;75.30
57566;DHT22;63999;43.882;-0.310;2023-07-30T13:20:53;24.00;75.40
57566;DHT22;63999;43.882;-0.310;2023-07-30T13:23:19;24.00;75.10
57566;DHT22;63999;43.882;-0.310;2023-07-30T13:25:45;24.10;75.00
57566;DHT22;63999;43.882;-0.310;2023-07-30T13:28:10;24.20;75.00
57566;DHT22;63999;43.882;-0.310;2023-07-30T13:30:36;24.20;74.90
57566;DHT22;63999;43.882;-0.310;2023-07-30T13:33:02;24.20;75.00
57566;DHT22;63999;43.882;-0.310;2023-07-30T13:35:28;24.20;75.10
57566;DHT22;63999;43.882;-0.310;2023-07-30T13:37:54;24.20;75.30
57566;DHT22;63999;43.882;-0.310;2023-07-30T13:40:22;24.20;75.10
57566;DHT22;63999;43.882;-0.310;2023-07-30T13:42:48;24.20;75.10
57566;DHT22;63999;43.882;-0.310;2023-07-30T13:45:14;24.20;75.30
57566;DHT22;63999;43.882;-0.310;2023-07-30T13:47:40;24.20;75.10
57566;DHT22;63999;43.882;-0.310;2023-07-30T13:50:07;24.30;75.30
57566;DHT22;63999;43.882;-0.310;2023-07-30T13:52:33;24.30;75.30
57566;DHT22;63999;43.882;-0.310;2023-07-30T13:54:59;24.30;75.20
57566;DHT22;63999;43.882;-0.310;2023-07-30T13:57:25;24.30;75.30
57566;DHT22;63999;43.882;-0.310;2023-07-30T13:59:52;24.30;75.10
57566;DHT22;63999;43.882;-0.310;2023-07-30T14:02:20;24.40;75.00
57566;DHT22;63999;43.882;-0.310;2023-07-30T14:04:46;24.30;75.10
57566;DHT22;63999;43.882;-0.310;2023-07-30T14:07:15;24.30;75.10
57566;DHT22;63999;43.882;-0.310;2023-07-30T14:09:41;24.30;75.40
57566;DHT22;63999;43.882;-0.310;2023-07-30T14:12:08;24.40;75.40
57566;DHT22;63999;43.882;-0.310;2023-07-30T14:14:37;24.40;75.20
57566;DHT22;63999;43.882;-0.310;2023-07-30T14:17:02;24.40;75.30
57566;DHT22;63999;43.882;-0.310;2023-07-30T14:19:32;24.30;75.30
57566;DHT22;63999;43.882;-0.310;2023-07-30T14:21:59;24.40;75.30
57566;DHT22;63999;43.882;-0.310;2023-07-30T14:24:27;24.40;75.30
57566;DHT22;63999;43.882;-0.310;2023-07-30T14:26:53;24.40;75.30
57566;DHT22;63999;43.882;-0.310;2023-07-30T14:29:19;24.40;75.10
57566;DHT22;63999;43.882;-0.310;2023-07-30T14:31:45;24.40;75.30
57566;DHT22;63999;43.882;-0.310;2023-07-30T14:34:11;24.30;75.20
57566;DHT22;63999;43.882;-0.310;2023-07-30T14:36:37;24.40;75.10
57566;DHT22;63999;43.882;-0.310;2023-07-30T14:39:03;24.40;75.10
57566;DHT22;63999;43.882;-0.310;2023-07-30T14:41:28;24.40;75.20
57566;DHT22;63999;43.882;-0.310;2023-07-30T14:43:54;24.40;75.20
57566;DHT22;63999;43.882;-0.310;2023-07-30T14:46:22;24.40;75.20
57566;DHT22;63999;43.882;-0.310;2023-07-30T14:48:53;24.40;75.40
57566;DHT22;63999;43.882;-0.310;2023-07-30T14:51:22;24.30;75.40
57566;DHT22;63999;43.882;-0.310;2023-07-30T14:53:49;24.30;75.60
57566;DHT22;63999;43.882;-0.310;2023-07-30T14:56:17;24.30;75.60
57566;DHT22;63999;43.882;-0.310;2023-07-30T14:58:46;24.40;75.30
57566;DHT22;63999;43.882;-0.310;2023-07-30T15:01:14;24.50;75.20
57566;DHT22;63999;43.882;-0.310;2023-07-30T15:03:40;24.50;75.30
57566;DHT22;63999;43.882;-0.310;2023-07-30T15:06:09;24.50;75.00
57566;DHT22;63999;43.882;-0.310;2023-07-30T15:08:35;24.60;74.90
57566;DHT22;63999;43.882;-0.310;2023-07-30T15:11:03;24.60;75.10
57566;DHT22;63999;43.882;-0.310;2023-07-30T15:13:29;24.50;75.00
57566;DHT22;63999;43.882;-0.310;2023-07-30T15:15:58;24.50;75.30
57566;DHT22;63999;43.882;-0.310;2023-07-30T15:18:24;24.50;75.40
57566;DHT22;63999;43.882;-0.310;2023-07-30T15:20:52;24.50;75.20
57566;DHT22;63999;43.882;-0.310;2023-07-30T15:23:21;24.50;75.30
57566;DHT22;63999;43.882;-0.310;2023-07-30T15:25:46;24.50;75.40
57566;DHT22;63999;43.882;-0.310;2023-07-30T15:28:14;24.50;75.30
57566;DHT22;63999;43.882;-0.310;2023-07-30T15:30:40;24.50;75.40
57566;DHT22;63999;43.882;-0.310;2023-07-30T15:33:10;24.50;75.20
57566;DHT22;63999;43.882;-0.310;2023-07-30T15:35:36;24.60;75.30